San Francisco, California
Traffic Map
Current Weather Conditions
San Francisco, California
Few Clouds
Few Clouds
67°
Feels Like: 67°
Wind Chill: 67° Ceiling: Unl
Heat Index: 67° Visibility: 10mi
Dew Point: 53° Wind: 17mph
Humidity: 61% Direction: 300° (WNW)
Pressure: 30.06in Gusts: 0mph
Raw Report DataKSFO 242056Z 30015KT 10SM FEW010 19/12 A3006 RMK AO2 SLP178 T01940117 58018
Traffic Incident Summary
Active as of:
Severity:
Category:
InformationThere was an issue retrieving the traffic information for this location. Please try a different location or try again shortly.
Advertisements
Track Severe Weather on mobile